sensor_id;sensor_type;location;lat;lon;timestamp;temperature;humidity
8114;DHT22;4099;52.684;9.918;2023-07-31T00:03:26;15.60;99.90
8114;DHT22;4099;52.684;9.918;2023-07-31T00:08:29;15.70;99.90
8114;DHT22;4099;52.684;9.918;2023-07-31T00:13:31;15.70;99.90
8114;DHT22;4099;52.684;9.918;2023-07-31T00:18:33;15.60;99.90
8114;DHT22;4099;52.684;9.918;2023-07-31T00:23:36;15.60;99.90
8114;DHT22;4099;52.684;9.918;2023-07-31T00:28:38;15.60;99.90
8114;DHT22;4099;52.684;9.918;2023-07-31T00:33:40;15.70;99.90
8114;DHT22;4099;52.684;9.918;2023-07-31T00:38:43;15.60;99.90
8114;DHT22;4099;52.684;9.918;2023-07-31T00:43:44;15.70;99.90
8114;DHT22;4099;52.684;9.918;2023-07-31T00:48:46;15.60;99.90
8114;DHT22;4099;52.684;9.918;2023-07-31T00:53:50;15.70;99.90
8114;DHT22;4099;52.684;9.918;2023-07-31T00:58:51;15.70;99.90
8114;DHT22;4099;52.684;9.918;2023-07-31T01:03:53;15.70;99.90
8114;DHT22;4099;52.684;9.918;2023-07-31T01:09:02;15.70;99.90
8114;DHT22;4099;52.684;9.918;2023-07-31T01:14:05;15.70;99.90
8114;DHT22;4099;52.684;9.918;2023-07-31T01:19:09;15.70;99.90
8114;DHT22;4099;52.684;9.918;2023-07-31T01:24:21;15.60;99.90
8114;DHT22;4099;52.684;9.918;2023-07-31T01:29:32;15.40;99.90
8114;DHT22;4099;52.684;9.918;2023-07-31T01:34:35;15.30;99.90
8114;DHT22;4099;52.684;9.918;2023-07-31T01:39:38;15.50;99.90
8114;DHT22;4099;52.684;9.918;2023-07-31T01:44:41;15.60;99.90
8114;DHT22;4099;52.684;9.918;2023-07-31T01:49:43;15.50;99.90
8114;DHT22;4099;52.684;9.918;2023-07-31T01:54:45;15.50;99.90
8114;DHT22;4099;52.684;9.918;2023-07-31T01:59:48;15.50;99.90
8114;DHT22;4099;52.684;9.918;2023-07-31T02:04:50;15.60;99.90
8114;DHT22;4099;52.684;9.918;2023-07-31T02:09:52;15.60;99.90
8114;DHT22;4099;52.684;9.918;2023-07-31T02:14:55;15.70;99.90
8114;DHT22;4099;52.684;9.918;2023-07-31T02:19:57;15.80;99.90
8114;DHT22;4099;52.684;9.918;2023-07-31T02:24:59;15.80;99.90
8114;DHT22;4099;52.684;9.918;2023-07-31T02:30:03;15.90;99.90
8114;DHT22;4099;52.684;9.918;2023-07-31T02:35:05;15.90;99.90
8114;DHT22;4099;52.684;9.918;2023-07-31T02:40:08;15.90;99.90
8114;DHT22;4099;52.684;9.918;2023-07-31T02:45:11;15.90;99.90
8114;DHT22;4099;52.684;9.918;2023-07-31T02:50:13;15.80;99.90
8114;DHT22;4099;52.684;9.918;2023-07-31T02:55:15;15.90;99.90
8114;DHT22;4099;52.684;9.918;2023-07-31T03:00:19;15.90;99.90
8114;DHT22;4099;52.684;9.918;2023-07-31T03:05:20;15.90;99.90
8114;DHT22;4099;52.684;9.918;2023-07-31T03:10:22;15.90;99.90
8114;DHT22;4099;52.684;9.918;2023-07-31T03:15:26;15.90;99.90
8114;DHT22;4099;52.684;9.918;2023-07-31T03:20:28;15.90;99.90
8114;DHT22;4099;52.684;9.918;2023-07-31T03:25:29;15.80;99.90
8114;DHT22;4099;52.684;9.918;2023-07-31T03:30:35;15.70;99.90
8114;DHT22;4099;52.684;9.918;2023-07-31T03:35:38;15.80;99.90
8114;DHT22;4099;52.684;9.918;2023-07-31T03:40:40;15.80;99.90
8114;DHT22;4099;52.684;9.918;2023-07-31T03:45:43;15.90;99.90
8114;DHT22;4099;52.684;9.918;2023-07-31T03:50:45;15.80;99.90
8114;DHT22;4099;52.684;9.918;2023-07-31T03:55:47;15.80;99.90
8114;DHT22;4099;52.684;9.918;2023-07-31T04:00:51;15.80;99.90
8114;DHT22;4099;52.684;9.918;2023-07-31T04:05:54;15.80;99.90
8114;DHT22;4099;52.684;9.918;2023-07-31T04:10:56;15.80;99.90
8114;DHT22;4099;52.684;9.918;2023-07-31T04:15:59;15.80;99.90
8114;DHT22;4099;52.684;9.918;2023-07-31T04:21:01;15.80;99.90
8114;DHT22;4099;52.684;9.918;2023-07-31T04:26:03;15.80;99.90
8114;DHT22;4099;52.684;9.918;2023-07-31T04:31:06;15.70;99.90
8114;DHT22;4099;52.684;9.918;2023-07-31T04:36:09;15.70;99.90
8114;DHT22;4099;52.684;9.918;2023-07-31T04:41:11;15.80;99.90
8114;DHT22;4099;52.684;9.918;2023-07-31T04:46:14;15.80;99.90
8114;DHT22;4099;52.684;9.918;2023-07-31T04:51:16;15.70;99.90
8114;DHT22;4099;52.684;9.918;2023-07-31T04:56:18;15.70;99.90
8114;DHT22;4099;52.684;9.918;2023-07-31T05:01:21;15.70;99.90
8114;DHT22;4099;52.684;9.918;2023-07-31T05:06:23;15.80;99.90
8114;DHT22;4099;52.684;9.918;2023-07-31T05:11:25;15.80;99.90
8114;DHT22;4099;52.684;9.918;2023-07-31T05:16:28;15.80;99.90
8114;DHT22;4099;52.684;9.918;2023-07-31T05:21:30;15.80;99.90
8114;DHT22;4099;52.684;9.918;2023-07-31T05:26:32;15.90;99.90
8114;DHT22;4099;52.684;9.918;2023-07-31T05:31:35;15.90;99.90
8114;DHT22;4099;52.684;9.918;2023-07-31T05:36:38;15.80;99.90
8114;DHT22;4099;52.684;9.918;2023-07-31T05:41:40;15.80;99.90
8114;DHT22;4099;52.684;9.918;2023-07-31T05:46:43;15.80;99.90
8114;DHT22;4099;52.684;9.918;2023-07-31T05:51:45;15.80;99.90
8114;DHT22;4099;52.684;9.918;2023-07-31T05:56:47;15.70;99.90
8114;DHT22;4099;52.684;9.918;2023-07-31T06:01:50;15.70;99.90
8114;DHT22;4099;52.684;9.918;2023-07-31T06:06:52;15.80;99.90
8114;DHT22;4099;52.684;9.918;2023-07-31T06:11:54;15.80;99.90
8114;DHT22;4099;52.684;9.918;2023-07-31T06:16:58;15.80;99.90
8114;DHT22;4099;52.684;9.918;2023-07-31T06:21:59;16.00;99.90
8114;DHT22;4099;52.684;9.918;2023-07-31T06:27:01;15.90;99.90
8114;DHT22;4099;52.684;9.918;2023-07-31T06:32:06;16.00;99.90
8114;DHT22;4099;52.684;9.918;2023-07-31T06:37:08;16.00;99.90
8114;DHT22;4099;52.684;9.918;2023-07-31T06:42:10;16.00;99.90
8114;DHT22;4099;52.684;9.918;2023-07-31T06:47:14;15.90;99.90
8114;DHT22;4099;52.684;9.918;2023-07-31T06:52:15;16.00;99.90
8114;DHT22;4099;52.684;9.918;2023-07-31T06:57:17;16.10;99.90
8114;DHT22;4099;52.684;9.918;2023-07-31T07:02:23;16.10;99.90
8114;DHT22;4099;52.684;9.918;2023-07-31T07:07:25;16.10;99.90
8114;DHT22;4099;52.684;9.918;2023-07-31T07:12:29;16.20;99.90
8114;DHT22;4099;52.684;9.918;2023-07-31T07:17:32;16.10;99.90
8114;DHT22;4099;52.684;9.918;2023-07-31T07:22:34;16.10;99.90
8114;DHT22;4099;52.684;9.918;2023-07-31T07:27:36;16.10;99.90
8114;DHT22;4099;52.684;9.918;2023-07-31T07:32:39;16.00;99.90
8114;DHT22;4099;52.684;9.918;2023-07-31T07:37:41;16.10;99.90
8114;DHT22;4099;52.684;9.918;2023-07-31T07:42:43;16.20;99.90
8114;DHT22;4099;52.684;9.918;2023-07-31T07:47:46;16.20;99.90
8114;DHT22;4099;52.684;9.918;2023-07-31T07:52:48;16.20;99.90
8114;DHT22;4099;52.684;9.918;2023-07-31T07:57:50;16.30;99.90
8114;DHT22;4099;52.684;9.918;2023-07-31T08:02:53;16.30;99.90
8114;DHT22;4099;52.684;9.918;2023-07-31T08:07:55;16.40;99.90
8114;DHT22;4099;52.684;9.918;2023-07-31T08:12:56;16.30;99.90
8114;DHT22;4099;52.684;9.918;2023-07-31T08:18:00;16.30;99.90
8114;DHT22;4099;52.684;9.918;2023-07-31T08:23:01;16.50;99.90
8114;DHT22;4099;52.684;9.918;2023-07-31T08:28:04;16.60;99.90
8114;DHT22;4099;52.684;9.918;2023-07-31T08:33:07;16.60;99.90
8114;DHT22;4099;52.684;9.918;2023-07-31T08:38:09;16.80;99.90
8114;DHT22;4099;52.684;9.918;2023-07-31T08:43:11;16.90;99.90
8114;DHT22;4099;52.684;9.918;2023-07-31T08:48:15;17.10;99.90
8114;DHT22;4099;52.684;9.918;2023-07-31T08:53:21;17.30;99.90
8114;DHT22;4099;52.684;9.918;2023-07-31T08:58:23;17.50;99.90
8114;DHT22;4099;52.684;9.918;2023-07-31T09:03:26;17.70;99.90
8114;DHT22;4099;52.684;9.918;2023-07-31T09:08:31;18.10;99.90
8114;DHT22;4099;52.684;9.918;2023-07-31T09:13:33;18.20;99.90
8114;DHT22;4099;52.684;9.918;2023-07-31T09:18:53;18.20;99.90
8114;DHT22;4099;52.684;9.918;2023-07-31T09:23:55;18.30;99.90
8114;DHT22;4099;52.684;9.918;2023-07-31T09:28:58;18.40;99.90
8114;DHT22;4099;52.684;9.918;2023-07-31T09:34:01;18.60;99.90
8114;DHT22;4099;52.684;9.918;2023-07-31T09:39:03;18.40;99.90
8114;DHT22;4099;52.684;9.918;2023-07-31T09:44:05;18.30;99.90
8114;DHT22;4099;52.684;9.918;2023-07-31T09:49:10;18.30;99.90
8114;DHT22;4099;52.684;9.918;2023-07-31T09:54:12;18.30;99.90
8114;DHT22;4099;52.684;9.918;2023-07-31T09:59:16;18.40;99.90
8114;DHT22;4099;52.684;9.918;2023-07-31T10:04:21;18.30;99.90
8114;DHT22;4099;52.684;9.918;2023-07-31T10:09:31;18.20;99.90
8114;DHT22;4099;52.684;9.918;2023-07-31T10:14:33;18.00;99.90
8114;DHT22;4099;52.684;9.918;2023-07-31T10:19:37;18.00;99.90
8114;DHT22;4099;52.684;9.918;2023-07-31T10:24:42;17.90;99.90
8114;DHT22;4099;52.684;9.918;2023-07-31T10:29:45;17.90;99.90
8114;DHT22;4099;52.684;9.918;2023-07-31T10:34:51;18.00;99.90
8114;DHT22;4099;52.684;9.918;2023-07-31T10:40:02;18.10;99.90
8114;DHT22;4099;52.684;9.918;2023-07-31T10:45:06;18.30;99.90
8114;DHT22;4099;52.684;9.918;2023-07-31T10:50:19;18.50;99.90
8114;DHT22;4099;52.684;9.918;2023-07-31T10:55:30;18.60;99.90
8114;DHT22;4099;52.684;9.918;2023-07-31T11:00:33;18.70;99.90
8114;DHT22;4099;52.684;9.918;2023-07-31T11:05:47;18.70;99.90
8114;DHT22;4099;52.684;9.918;2023-07-31T11:11:03;18.60;99.90
8114;DHT22;4099;52.684;9.918;2023-07-31T11:16:06;18.70;99.90
8114;DHT22;4099;52.684;9.918;2023-07-31T11:21:12;18.70;99.90
8114;DHT22;4099;52.684;9.918;2023-07-31T11:26:14;18.60;99.90
8114;DHT22;4099;52.684;9.918;2023-07-31T11:31:16;18.60;99.90
8114;DHT22;4099;52.684;9.918;2023-07-31T11:36:21;18.50;99.90
8114;DHT22;4099;52.684;9.918;2023-07-31T11:41:23;18.50;99.90
8114;DHT22;4099;52.684;9.918;2023-07-31T11:46:25;18.50;99.90
8114;DHT22;4099;52.684;9.918;2023-07-31T11:51:29;18.50;99.90
8114;DHT22;4099;52.684;9.918;2023-07-31T11:56:31;18.60;99.90
8114;DHT22;4099;52.684;9.918;2023-07-31T12:01:33;18.60;99.90
8114;DHT22;4099;52.684;9.918;2023-07-31T12:06:38;18.50;99.90
8114;DHT22;4099;52.684;9.918;2023-07-31T12:11:44;18.40;99.90
8114;DHT22;4099;52.684;9.918;2023-07-31T12:16:46;18.30;99.90
8114;DHT22;4099;52.684;9.918;2023-07-31T12:21:49;18.20;99.90
8114;DHT22;4099;52.684;9.918;2023-07-31T12:26:51;18.10;99.90
8114;DHT22;4099;52.684;9.918;2023-07-31T12:31:55;18.00;99.90
8114;DHT22;4099;52.684;9.918;2023-07-31T12:36:58;17.90;99.90
8114;DHT22;4099;52.684;9.918;2023-07-31T12:42:00;17.80;99.90
8114;DHT22;4099;52.684;9.918;2023-07-31T12:47:03;17.90;99.90
8114;DHT22;4099;52.684;9.918;2023-07-31T12:52:07;17.80;99.90
8114;DHT22;4099;52.684;9.918;2023-07-31T12:57:09;17.70;99.90
8114;DHT22;4099;52.684;9.918;2023-07-31T13:02:12;17.70;99.90
8114;DHT22;4099;52.684;9.918;2023-07-31T13:07:16;17.90;99.90
8114;DHT22;4099;52.684;9.918;2023-07-31T13:12:18;18.00;99.90
8114;DHT22;4099;52.684;9.918;2023-07-31T13:17:21;18.10;99.90
8114;DHT22;4099;52.684;9.918;2023-07-31T13:22:24;18.10;99.90
8114;DHT22;4099;52.684;9.918;2023-07-31T13:27:27;18.10;99.90
8114;DHT22;4099;52.684;9.918;2023-07-31T13:32:29;18.10;99.90
8114;DHT22;4099;52.684;9.918;2023-07-31T13:37:33;18.10;99.90
8114;DHT22;4099;52.684;9.918;2023-07-31T13:42:35;18.20;99.90
8114;DHT22;4099;52.684;9.918;2023-07-31T13:47:37;18.30;99.90
8114;DHT22;4099;52.684;9.918;2023-07-31T13:52:40;18.40;99.90
8114;DHT22;4099;52.684;9.918;2023-07-31T13:57:43;18.50;99.90
8114;DHT22;4099;52.684;9.918;2023-07-31T14:02:44;18.60;99.90
8114;DHT22;4099;52.684;9.918;2023-07-31T14:07:49;18.70;99.90
8114;DHT22;4099;52.684;9.918;2023-07-31T14:12:51;18.80;99.90
8114;DHT22;4099;52.684;9.918;2023-07-31T14:17:53;18.80;99.90
8114;DHT22;4099;52.684;9.918;2023-07-31T14:22:57;18.70;99.90
8114;DHT22;4099;52.684;9.918;2023-07-31T14:27:59;18.80;99.90
8114;DHT22;4099;52.684;9.918;2023-07-31T14:33:01;18.60;99.90
8114;DHT22;4099;52.684;9.918;2023-07-31T14:38:04;18.60;99.90
8114;DHT22;4099;52.684;9.918;2023-07-31T14:43:06;18.60;99.90
8114;DHT22;4099;52.684;9.918;2023-07-31T14:48:08;18.70;99.90
8114;DHT22;4099;52.684;9.918;2023-07-31T14:53:11;18.80;99.90
8114;DHT22;4099;52.684;9.918;2023-07-31T14:58:14;18.80;99.90
8114;DHT22;4099;52.684;9.918;2023-07-31T15:03:17;18.80;99.90
8114;DHT22;4099;52.684;9.918;2023-07-31T15:08:21;18.70;99.90
8114;DHT22;4099;52.684;9.918;2023-07-31T15:13:24;18.60;99.90
8114;DHT22;4099;52.684;9.918;2023-07-31T15:18:26;18.50;99.90
8114;DHT22;4099;52.684;9.918;2023-07-31T15:23:30;18.50;99.90
8114;DHT22;4099;52.684;9.918;2023-07-31T15:28:32;18.50;99.90
8114;DHT22;4099;52.684;9.918;2023-07-31T15:33:35;18.70;99.90
8114;DHT22;4099;52.684;9.918;2023-07-31T15:38:39;18.80;99.90
8114;DHT22;4099;52.684;9.918;2023-07-31T15:43:41;18.80;99.90
8114;DHT22;4099;52.684;9.918;2023-07-31T15:48:44;18.70;99.90
8114;DHT22;4099;52.684;9.918;2023-07-31T15:53:48;18.70;99.90
8114;DHT22;4099;52.684;9.918;2023-07-31T15:58:50;18.60;99.90
8114;DHT22;4099;52.684;9.918;2023-07-31T16:03:52;18.60;99.90
8114;DHT22;4099;52.684;9.918;2023-07-31T16:08:55;18.70;99.90
8114;DHT22;4099;52.684;9.918;2023-07-31T16:13:57;18.70;99.90
8114;DHT22;4099;52.684;9.918;2023-07-31T16:19:00;18.80;99.90
8114;DHT22;4099;52.684;9.918;2023-07-31T16:24:03;18.80;99.90
8114;DHT22;4099;52.684;9.918;2023-07-31T16:29:05;18.80;99.90
8114;DHT22;4099;52.684;9.918;2023-07-31T16:34:07;18.90;99.90
8114;DHT22;4099;52.684;9.918;2023-07-31T16:39:11;19.00;99.90
8114;DHT22;4099;52.684;9.918;2023-07-31T16:44:13;19.00;99.90
8114;DHT22;4099;52.684;9.918;2023-07-31T16:49:16;18.90;99.90
8114;DHT22;4099;52.684;9.918;2023-07-31T16:54:20;18.90;99.90
8114;DHT22;4099;52.684;9.918;2023-07-31T16:59:22;19.00;99.90
8114;DHT22;4099;52.684;9.918;2023-07-31T17:04:24;19.00;99.90
8114;DHT22;4099;52.684;9.918;2023-07-31T17:09:27;18.90;99.90
8114;DHT22;4099;52.684;9.918;2023-07-31T17:14:29;18.90;99.90
8114;DHT22;4099;52.684;9.918;2023-07-31T17:19:31;19.00;99.90
8114;DHT22;4099;52.684;9.918;2023-07-31T17:24:35;18.90;99.90
8114;DHT22;4099;52.684;9.918;2023-07-31T17:29:37;19.10;99.90
8114;DHT22;4099;52.684;9.918;2023-07-31T17:34:39;19.00;99.90
8114;DHT22;4099;52.684;9.918;2023-07-31T17:39:43;19.00;99.90
8114;DHT22;4099;52.684;9.918;2023-07-31T17:44:45;18.90;99.90
8114;DHT22;4099;52.684;9.918;2023-07-31T17:49:47;19.00;99.90
8114;DHT22;4099;52.684;9.918;2023-07-31T17:54:52;18.90;99.90
8114;DHT22;4099;52.684;9.918;2023-07-31T17:59:55;19.00;99.90
8114;DHT22;4099;52.684;9.918;2023-07-31T18:04:56;18.90;99.90
8114;DHT22;4099;52.684;9.918;2023-07-31T18:10:00;19.00;99.90
8114;DHT22;4099;52.684;9.918;2023-07-31T18:15:02;19.00;99.90
8114;DHT22;4099;52.684;9.918;2023-07-31T18:20:05;18.90;99.90
8114;DHT22;4099;52.684;9.918;2023-07-31T18:25:11;18.90;99.90
8114;DHT22;4099;52.684;9.918;2023-07-31T18:30:14;18.80;99.90
8114;DHT22;4099;52.684;9.918;2023-07-31T18:35:17;18.70;99.90
8114;DHT22;4099;52.684;9.918;2023-07-31T18:40:21;18.70;99.90
8114;DHT22;4099;52.684;9.918;2023-07-31T18:45:23;18.60;99.90
8114;DHT22;4099;52.684;9.918;2023-07-31T18:50:26;18.60;99.90
8114;DHT22;4099;52.684;9.918;2023-07-31T18:55:30;18.60;99.90
8114;DHT22;4099;52.684;9.918;2023-07-31T19:00:32;18.60;99.90
8114;DHT22;4099;52.684;9.918;2023-07-31T19:05:35;18.60;99.90
8114;DHT22;4099;52.684;9.918;2023-07-31T19:10:39;18.60;99.90
8114;DHT22;4099;52.684;9.918;2023-07-31T19:15:41;18.40;99.90
8114;DHT22;4099;52.684;9.918;2023-07-31T19:20:43;18.40;99.90
8114;DHT22;4099;52.684;9.918;2023-07-31T19:25:47;18.20;99.90
8114;DHT22;4099;52.684;9.918;2023-07-31T19:30:49;18.10;99.90
8114;DHT22;4099;52.684;9.918;2023-07-31T19:35:55;18.10;99.90
8114;DHT22;4099;52.684;9.918;2023-07-31T19:41:00;18.00;99.90
8114;DHT22;4099;52.684;9.918;2023-07-31T19:46:02;17.90;99.90
8114;DHT22;4099;52.684;9.918;2023-07-31T19:51:04;17.90;99.90
8114;DHT22;4099;52.684;9.918;2023-07-31T19:56:07;17.90;99.90
8114;DHT22;4099;52.684;9.918;2023-07-31T20:01:10;17.90;99.90
8114;DHT22;4099;52.684;9.918;2023-07-31T20:06:12;17.80;99.90
8114;DHT22;4099;52.684;9.918;2023-07-31T20:11:16;17.80;99.90
8114;DHT22;4099;52.684;9.918;2023-07-31T20:16:18;17.80;99.90
8114;DHT22;4099;52.684;9.918;2023-07-31T20:21:20;17.70;99.90
8114;DHT22;4099;52.684;9.918;2023-07-31T20:26:24;17.60;99.90
8114;DHT22;4099;52.684;9.918;2023-07-31T20:31:26;17.60;99.90
8114;DHT22;4099;52.684;9.918;2023-07-31T20:36:29;17.60;99.90
8114;DHT22;4099;52.684;9.918;2023-07-31T20:41:33;17.50;99.90
8114;DHT22;4099;52.684;9.918;2023-07-31T20:46:36;17.50;99.90
8114;DHT22;4099;52.684;9.918;2023-07-31T20:51:38;17.50;99.90
8114;DHT22;4099;52.684;9.918;2023-07-31T20:56:44;17.50;99.90
8114;DHT22;4099;52.684;9.918;2023-07-31T21:01:46;17.50;99.90
8114;DHT22;4099;52.684;9.918;2023-07-31T21:06:48;17.50;99.90
8114;DHT22;4099;52.684;9.918;2023-07-31T21:11:53;17.50;99.90
8114;DHT22;4099;52.684;9.918;2023-07-31T21:16:55;17.50;99.90
8114;DHT22;4099;52.684;9.918;2023-07-31T21:21:57;17.50;99.90
8114;DHT22;4099;52.684;9.918;2023-07-31T21:27:00;17.50;99.90
8114;DHT22;4099;52.684;9.918;2023-07-31T21:32:03;17.40;99.90
8114;DHT22;4099;52.684;9.918;2023-07-31T21:37:06;17.30;99.90
8114;DHT22;4099;52.684;9.918;2023-07-31T21:42:11;17.30;99.90
8114;DHT22;4099;52.684;9.918;2023-07-31T21:47:13;17.30;99.90
8114;DHT22;4099;52.684;9.918;2023-07-31T21:52:15;17.30;99.90
8114;DHT22;4099;52.684;9.918;2023-07-31T21:57:19;17.30;99.90
8114;DHT22;4099;52.684;9.918;2023-07-31T22:02:21;17.20;99.90
8114;DHT22;4099;52.684;9.918;2023-07-31T22:07:23;17.30;99.90
8114;DHT22;4099;52.684;9.918;2023-07-31T22:12:27;17.20;99.90
8114;DHT22;4099;52.684;9.918;2023-07-31T22:17:29;17.20;99.90
8114;DHT22;4099;52.684;9.918;2023-07-31T22:22:32;17.20;99.90
8114;DHT22;4099;52.684;9.918;2023-07-31T22:27:35;17.20;99.90
8114;DHT22;4099;52.684;9.918;2023-07-31T22:32:38;17.20;99.90
8114;DHT22;4099;52.684;9.918;2023-07-31T22:37:41;17.10;99.90
8114;DHT22;4099;52.684;9.918;2023-07-31T22:42:44;17.10;99.90
8114;DHT22;4099;52.684;9.918;2023-07-31T22:47:46;17.10;99.90
8114;DHT22;4099;52.684;9.918;2023-07-31T22:52:48;17.10;99.90
8114;DHT22;4099;52.684;9.918;2023-07-31T22:57:52;17.10;99.90
8114;DHT22;4099;52.684;9.918;2023-07-31T23:02:54;17.10;99.90
8114;DHT22;4099;52.684;9.918;2023-07-31T23:07:56;17.00;99.90
8114;DHT22;4099;52.684;9.918;2023-07-31T23:13:00;16.90;99.90
8114;DHT22;4099;52.684;9.918;2023-07-31T23:18:02;16.90;99.90
8114;DHT22;4099;52.684;9.918;2023-07-31T23:23:05;16.90;99.90
8114;DHT22;4099;52.684;9.918;2023-07-31T23:28:10;16.90;99.90
8114;DHT22;4099;52.684;9.918;2023-07-31T23:33:12;16.90;99.90
8114;DHT22;4099;52.684;9.918;2023-07-31T23:38:13;16.90;99.90
8114;DHT22;4099;52.684;9.918;2023-07-31T23:43:17;16.80;99.90
8114;DHT22;4099;52.684;9.918;2023-07-31T23:48:19;16.80;99.90
8114;DHT22;4099;52.684;9.918;2023-07-31T23:53:21;16.80;99.90
8114;DHT22;4099;52.684;9.918;2023-07-31T23:58:25;16.80;99.90
